Time;durP1;ratioP1;P1;durP2;ratioP2;P2;SDS_P1;SDS_P2;PMS_P1;PMS_P2;Temp;Humidity;BMP_temperature;BMP_pressure;BME280_temperature;BME280_humidity;BME280_pressure;Samples;Min_cycle;Max_cycle;Signal;HPM_P1;HPM_P2
2022/08/29 00:02:01;;;;;;;5.00;3.40;;;18.00;99.90;19.50;96952.00;;;;5036317;28;20201;-85
2022/08/29 00:04:50;;;;;;;6.00;4.67;;;18.10;99.90;19.30;96954.00;;;;5043571;28;20221;-85
2022/08/29 00:07:40;;;;;;;4.67;3.90;;;18.00;99.90;19.10;96944.00;;;;5052513;28;20192;-87
2022/08/29 00:10:31;;;;;;;14.17;4.30;;;17.90;99.90;19.10;96939.00;;;;5052824;28;20651;-87
2022/08/29 00:13:21;;;;;;;6.13;4.20;;;17.90;99.90;18.90;96951.00;;;;5051786;28;20713;-84
2022/08/29 00:16:10;;;;;;;7.83;3.97;;;17.90;99.90;18.90;96947.00;;;;5052005;28;20193;-84
2022/08/29 00:18:58;;;;;;;4.17;3.87;;;17.80;99.90;19.10;96935.00;;;;5043228;28;20247;-86
2022/08/29 00:21:47;;;;;;;3.87;3.37;;;17.70;99.90;19.10;96937.00;;;;5051450;28;20211;-87
2022/08/29 00:24:37;;;;;;;4.47;4.07;;;17.70;99.90;19.10;96938.00;;;;5037741;28;20213;-86
2022/08/29 00:27:26;;;;;;;6.63;4.13;;;17.70;99.90;19.20;96931.00;;;;5038622;28;20208;-83
2022/08/29 00:30:16;;;;;;;4.10;3.73;;;17.70;99.90;19.10;96932.00;;;;5072267;28;20212;-84
2022/08/29 00:33:05;;;;;;;7.67;4.03;;;17.70;99.90;19.10;96932.00;;;;5062222;28;20232;-87
2022/08/29 00:35:54;;;;;;;4.10;3.80;;;17.70;99.90;19.00;96933.00;;;;5045405;28;20216;-87
2022/08/29 00:38:43;;;;;;;4.70;3.80;;;17.70;99.90;19.10;96936.00;;;;5040484;28;20212;-87
2022/08/29 00:41:33;;;;;;;3.80;3.47;;;17.70;99.90;19.00;96935.00;;;;5038589;28;20209;-87
2022/08/29 00:44:22;;;;;;;4.73;3.47;;;17.70;99.90;19.00;96938.00;;;;5038904;28;20228;-87
2022/08/29 00:47:17;;;;;;;6.80;3.57;;;17.70;99.90;19.00;96943.00;;;;5040146;28;20202;-85
2022/08/29 00:50:08;;;;;;;3.43;2.83;;;17.60;99.90;19.00;96953.00;;;;5052644;28;20197;-87
2022/08/29 00:52:59;;;;;;;6.07;3.17;;;17.60;99.90;19.00;96943.00;;;;5038692;28;20728;-87
2022/08/29 00:55:49;;;;;;;8.60;3.93;;;17.60;99.90;18.60;96948.00;;;;5030699;28;20204;-87
2022/08/29 00:58:46;;;;;;;7.03;3.93;;;17.60;99.90;18.50;96945.00;;;;5042119;28;20200;-87
2022/08/29 01:01:35;;;;;;;3.80;3.40;;;17.50;99.90;18.30;96950.00;;;;5039052;28;20205;-88
2022/08/29 01:04:24;;;;;;;4.50;4.00;;;17.40;99.90;18.20;96952.00;;;;5047853;28;20217;-87
2022/08/29 01:07:13;;;;;;;5.60;3.30;;;17.30;99.90;18.40;96949.00;;;;5042011;28;20192;-86
2022/08/29 01:10:01;;;;;;;3.30;2.93;;;17.30;99.90;18.50;96947.00;;;;5039874;28;20218;-86
2022/08/29 01:12:49;;;;;;;5.03;3.73;;;17.20;99.90;18.40;96950.00;;;;5043237;28;20220;-86
2022/08/29 01:15:42;;;;;;;6.80;4.60;;;17.20;99.90;18.60;96950.00;;;;5038274;28;20205;-86
2022/08/29 01:18:34;;;;;;;4.33;3.60;;;17.20;99.90;18.60;96950.00;;;;5035761;28;20259;-83
2022/08/29 01:21:34;;;;;;;4.00;3.60;;;17.20;99.90;18.50;96961.00;;;;5036900;28;20596;-86
2022/08/29 01:24:35;;;;;;;5.57;3.60;;;17.20;99.90;18.50;96954.00;;;;5106308;22;20233;-73
2022/08/29 01:27:29;;;;;;;4.20;3.70;;;17.20;99.90;18.30;96963.00;;;;5113859;27;20221;-72
2022/08/29 01:30:19;;;;;;;4.30;3.00;;;17.10;99.90;18.20;96963.00;;;;5099881;28;20662;-72
2022/08/29 01:33:08;;;;;;;3.67;3.20;;;17.10;99.90;18.30;96970.00;;;;5104645;28;20215;-72
2022/08/29 01:35:56;;;;;;;2.73;2.40;;;17.10;99.90;18.50;96963.00;;;;5106340;28;20654;-72
2022/08/29 01:38:46;;;;;;;4.87;3.47;;;17.10;99.90;18.30;96968.00;;;;5107631;28;20223;-72
2022/08/29 01:41:36;;;;;;;5.17;3.13;;;17.10;99.90;18.30;96975.00;;;;5106168;28;20915;-72
2022/08/29 01:44:26;;;;;;;7.13;3.33;;;17.10;99.90;18.20;96970.00;;;;5092419;28;20199;-72
2022/08/29 01:47:14;;;;;;;11.67;3.27;;;17.00;99.90;18.40;96966.00;;;;5094415;28;20219;-73
2022/08/29 01:50:09;;;;;;;3.90;2.67;;;17.00;99.90;18.50;96972.00;;;;5090025;22;20238;-88
2022/08/29 01:52:58;;;;;;;3.30;3.00;;;17.00;99.90;18.50;96975.00;;;;5080565;28;20239;-87
2022/08/29 01:55:47;;;;;;;3.30;2.87;;;17.10;99.90;18.60;96976.00;;;;5059798;28;20591;-88
2022/08/29 01:58:38;;;;;;;3.83;3.37;;;17.10;99.90;18.40;96970.00;;;;5060848;28;20207;-88
2022/08/29 02:01:30;;;;;;;4.27;3.63;;;17.10;99.90;18.50;96972.00;;;;5051486;28;20192;-88
2022/08/29 02:04:19;;;;;;;3.70;3.17;;;17.10;99.90;18.60;96969.00;;;;5114658;22;20242;-74
2022/08/29 02:07:08;;;;;;;5.87;3.07;;;17.20;99.90;18.50;96971.00;;;;5092501;28;20195;-74
2022/08/29 02:10:00;;;;;;;3.30;2.87;;;17.10;99.90;18.10;96973.00;;;;5075147;28;20212;-75
2022/08/29 02:12:49;;;;;;;2.97;2.60;;;17.10;99.90;17.90;96976.00;;;;5053675;28;20224;-74
2022/08/29 02:15:39;;;;;;;3.33;2.93;;;17.00;99.90;17.80;96978.00;;;;5088812;28;20192;-74
2022/08/29 02:18:27;;;;;;;4.67;3.07;;;16.90;99.90;18.00;96987.00;;;;5075794;28;20215;-74
2022/08/29 02:21:20;;;;;;;6.33;3.10;;;16.80;99.90;18.00;96983.00;;;;5075873;28;20203;-74
2022/08/29 02:24:09;;;;;;;3.37;2.73;;;16.80;99.90;17.80;96982.00;;;;5087045;28;20187;-74
2022/08/29 02:27:11;;;;;;;5.83;3.40;;;16.80;99.90;17.90;96989.00;;;;5082585;28;20188;-74
2022/08/29 02:30:00;;;;;;;4.27;3.17;;;16.70;99.90;17.70;96993.00;;;;5076683;28;20211;-73
2022/08/29 02:32:50;;;;;;;3.17;2.87;;;16.70;99.90;17.60;96998.00;;;;5069077;28;20211;-73
2022/08/29 02:35:39;;;;;;;9.17;2.73;;;16.60;99.90;17.50;96990.00;;;;5079410;28;20184;-73
2022/08/29 02:38:30;;;;;;;5.20;2.83;;;16.50;99.90;17.40;96981.00;;;;5071032;28;20230;-74
2022/08/29 02:41:19;;;;;;;7.07;2.63;;;16.50;99.90;17.30;96978.00;;;;5062898;28;20703;-74
2022/08/29 02:44:08;;;;;;;8.67;3.30;;;16.40;99.90;17.60;96988.00;;;;5067872;28;20208;-73
2022/08/29 02:46:57;;;;;;;3.03;2.60;;;16.40;99.90;17.70;96991.00;;;;5069845;28;20188;-74
2022/08/29 02:49:47;;;;;;;3.63;2.67;;;16.40;99.90;17.90;96988.00;;;;5083279;28;20277;-73
2022/08/29 02:52:36;;;;;;;3.30;3.00;;;16.40;99.90;17.90;96981.00;;;;5082551;28;20729;-74
2022/08/29 02:55:26;;;;;;;6.67;2.93;;;16.40;99.90;18.10;96988.00;;;;5086024;28;20192;-74
2022/08/29 02:58:15;;;;;;;6.13;3.40;;;16.50;99.90;18.20;96990.00;;;;5076781;28;20198;-73
2022/08/29 03:01:04;;;;;;;11.17;3.37;;;16.60;99.90;18.20;96983.00;;;;5070485;28;20191;-73
2022/08/29 03:03:53;;;;;;;2.90;2.60;;;16.70;99.90;17.90;96986.00;;;;5061412;28;20204;-74
2022/08/29 03:06:44;;;;;;;4.23;2.73;;;16.70;99.90;17.50;96984.00;;;;5065086;28;20228;-75
2022/08/29 03:09:32;;;;;;;4.17;2.50;;;16.60;99.90;17.60;96991.00;;;;5070666;28;20571;-74
2022/08/29 03:12:21;;;;;;;3.10;2.80;;;16.50;99.90;17.50;96989.00;;;;5077042;28;20230;-74
2022/08/29 03:15:11;;;;;;;4.90;3.50;;;16.50;99.90;17.70;96988.00;;;;5070987;28;20196;-74
2022/08/29 03:18:00;;;;;;;2.73;2.53;;;16.50;99.90;18.00;96992.00;;;;5070080;28;20204;-74
2022/08/29 03:20:49;;;;;;;5.23;3.00;;;16.50;99.90;18.10;96991.00;;;;5068815;28;20663;-74
2022/08/29 03:23:41;;;;;;;4.83;2.80;;;16.50;99.90;18.10;96992.00;;;;5070323;28;20207;-74
2022/08/29 03:26:30;;;;;;;3.87;2.40;;;16.60;99.90;18.00;96992.00;;;;5077119;28;20546;-74
2022/08/29 03:29:19;;;;;;;3.77;3.33;;;16.60;99.90;17.60;97004.00;;;;5065976;28;20219;-75
2022/08/29 03:32:08;;;;;;;4.90;2.60;;;16.60;99.90;17.60;97003.00;;;;5068159;28;20211;-73
2022/08/29 03:34:57;;;;;;;4.03;2.53;;;16.50;99.90;17.90;96989.00;;;;5070827;28;20595;-74
2022/08/29 03:37:45;;;;;;;5.43;3.00;;;16.50;99.90;17.80;96982.00;;;;5074492;28;20195;-74
2022/08/29 03:40:36;;;;;;;3.73;3.43;;;16.50;99.90;17.60;96989.00;;;;5085135;28;20196;-74
2022/08/29 03:43:25;;;;;;;3.20;2.70;;;16.50;99.90;17.40;96983.00;;;;5065196;28;20198;-73
2022/08/29 03:46:13;;;;;;;3.40;2.93;;;16.40;99.90;17.20;96983.00;;;;5070837;28;20196;-74
2022/08/29 03:49:02;;;;;;;3.47;2.67;;;16.30;99.90;17.30;96978.00;;;;5069024;28;20220;-74
2022/08/29 03:51:51;;;;;;;3.50;3.07;;;16.30;99.90;17.30;96989.00;;;;5060637;28;20196;-74
2022/08/29 03:54:40;;;;;;;3.90;3.27;;;16.30;99.90;17.60;96992.00;;;;5059730;28;20674;-74
2022/08/29 03:57:31;;;;;;;4.50;2.90;;;16.30;99.90;17.50;96986.00;;;;5067271;28;20227;-74
2022/08/29 04:00:20;;;;;;;3.67;3.13;;;16.30;99.90;17.40;96991.00;;;;5070596;28;20219;-74
2022/08/29 04:03:09;;;;;;;4.03;2.47;;;16.30;99.90;17.50;96996.00;;;;5069905;28;20212;-73
2022/08/29 04:05:58;;;;;;;3.17;2.90;;;16.30;99.90;17.60;97005.00;;;;5068049;28;20199;-74
2022/08/29 04:08:48;;;;;;;2.97;2.30;;;16.30;99.90;17.60;97012.00;;;;5069421;28;20295;-73
2022/08/29 04:11:37;;;;;;;3.93;2.53;;;16.30;99.90;17.60;97014.00;;;;5066889;28;20596;-74
2022/08/29 04:14:28;;;;;;;3.77;2.80;;;16.30;99.90;17.60;97014.00;;;;5060936;28;20220;-74
2022/08/29 04:17:17;;;;;;;5.27;2.70;;;16.30;99.90;17.50;97010.00;;;;5066249;28;20769;-74
2022/08/29 04:20:08;;;;;;;2.47;2.27;;;16.30;99.90;17.40;97010.00;;;;5068739;28;20231;-73
2022/08/29 04:22:58;;;;;;;7.80;2.63;;;16.30;99.90;17.20;97017.00;;;;5061717;28;20196;-75
2022/08/29 04:25:47;;;;;;;4.00;2.13;;;16.20;99.90;17.40;97013.00;;;;5070596;28;20200;-74
2022/08/29 04:28:36;;;;;;;4.13;2.73;;;16.20;99.90;17.40;97004.00;;;;5076935;28;20215;-74
2022/08/29 04:31:26;;;;;;;4.63;3.40;;;16.10;99.90;17.40;97013.00;;;;5077999;28;20223;-74
2022/08/29 04:34:15;;;;;;;6.87;3.43;;;16.10;99.90;17.20;97022.00;;;;5068718;28;20212;-74
2022/08/29 04:37:04;;;;;;;6.33;3.27;;;16.20;99.90;17.00;97015.00;;;;5067333;28;20663;-74
2022/08/29 04:39:53;;;;;;;4.47;2.50;;;16.10;99.90;17.30;97018.00;;;;5071612;28;20216;-75
2022/08/29 04:42:42;;;;;;;3.87;2.60;;;16.00;99.90;17.20;97017.00;;;;5068979;28;20279;-74
2022/08/29 04:45:32;;;;;;;4.33;2.90;;;16.00;99.90;16.90;97022.00;;;;5064580;28;20192;-74
2022/08/29 04:48:22;;;;;;;3.13;2.80;;;16.00;99.90;17.00;97024.00;;;;5070637;28;20227;-73
2022/08/29 04:51:11;;;;;;;3.70;2.80;;;15.90;99.90;17.20;97018.00;;;;5070389;28;20188;-74
2022/08/29 04:53:59;;;;;;;7.40;3.33;;;15.90;99.90;17.40;97021.00;;;;5070749;28;20228;-74
2022/08/29 04:56:48;;;;;;;2.80;2.60;;;16.00;99.90;17.50;97018.00;;;;5071432;28;20207;-74
2022/08/29 04:59:37;;;;;;;4.23;2.50;;;16.20;99.90;17.00;97031.00;;;;5064948;28;20946;-74
2022/08/29 05:02:27;;;;;;;5.03;2.70;;;16.00;99.90;17.00;97024.00;;;;5069630;28;20659;-74
2022/08/29 05:05:18;;;;;;;4.13;2.87;;;15.90;99.90;16.90;97031.00;;;;5070892;28;20204;-73
2022/08/29 05:08:06;;;;;;;2.70;2.27;;;15.90;99.90;16.80;97029.00;;;;5067079;28;20196;-74
2022/08/29 05:10:55;;;;;;;5.43;2.70;;;15.80;99.90;16.90;97030.00;;;;5070727;28;20200;-74
2022/08/29 05:13:44;;;;;;;3.53;3.10;;;15.80;99.90;16.80;97037.00;;;;5070971;28;20219;-73
2022/08/29 05:16:36;;;;;;;6.67;2.97;;;15.80;99.90;17.00;97037.00;;;;5064889;28;20199;-74
2022/08/29 05:19:24;;;;;;;9.00;4.00;;;15.80;99.90;17.30;97041.00;;;;5071083;28;20214;-74
2022/08/29 05:22:15;;;;;;;7.70;3.17;;;15.80;99.90;17.20;97043.00;;;;5067797;28;20655;-73
2022/08/29 05:25:05;;;;;;;8.67;2.70;;;15.90;99.90;17.00;97039.00;;;;5071012;28;20199;-74
2022/08/29 05:27:54;;;;;;;4.57;2.40;;;15.90;99.90;16.90;97042.00;;;;5070219;28;20819;-75
2022/08/29 05:30:43;;;;;;;6.47;2.90;;;15.90;99.90;17.10;97048.00;;;;5073747;28;20215;-73
2022/08/29 05:33:32;;;;;;;4.87;2.67;;;15.90;99.90;17.10;97047.00;;;;5066504;28;20595;-73
2022/08/29 05:36:21;;;;;;;2.57;2.37;;;16.00;99.90;17.00;97053.00;;;;5067969;28;20208;-74
2022/08/29 05:39:11;;;;;;;4.23;2.27;;;16.00;99.90;17.00;97047.00;;;;5070882;28;20215;-73
2022/08/29 05:42:01;;;;;;;3.30;2.57;;;16.00;99.90;17.20;97049.00;;;;5080792;28;20575;-72
2022/08/29 05:44:50;;;;;;;2.67;2.43;;;16.10;99.90;17.30;97046.00;;;;5068482;28;20571;-73
2022/08/29 05:47:39;;;;;;;3.73;2.63;;;16.10;99.90;17.50;97033.00;;;;5069853;28;20193;-74
2022/08/29 05:50:28;;;;;;;3.20;2.90;;;16.20;99.90;17.60;97042.00;;;;5065971;28;20307;-74
2022/08/29 05:53:18;;;;;;;4.90;2.73;;;16.30;99.90;17.80;97039.00;;;;5068949;28;20200;-73
2022/08/29 05:56:09;;;;;;;3.17;2.87;;;16.40;99.90;17.70;97041.00;;;;5069814;28;20265;-72
2022/08/29 05:58:58;;;;;;;9.57;6.07;;;16.50;99.90;17.80;97042.00;;;;5069547;28;20220;-74
2022/08/29 06:01:47;;;;;;;42.13;25.77;;;16.60;99.90;17.90;97035.00;;;;5050668;28;20201;-75
2022/08/29 06:04:36;;;;;;;21.73;16.00;;;16.60;99.90;17.70;97034.00;;;;5051008;28;20222;-74
2022/08/29 06:07:25;;;;;;;16.20;10.43;;;16.70;99.90;17.90;97034.00;;;;5072219;28;20192;-73
2022/08/29 06:10:14;;;;;;;7.30;4.57;;;16.70;99.90;18.10;97038.00;;;;5067407;28;20234;-74
2022/08/29 06:13:04;;;;;;;5.10;3.13;;;16.80;99.90;18.30;97042.00;;;;5066976;28;20564;-73
2022/08/29 06:15:53;;;;;;;5.93;3.03;;;16.90;99.90;18.60;97037.00;;;;5069513;28;20204;-74
2022/08/29 06:18:42;;;;;;;5.60;2.60;;;17.10;99.90;18.70;97037.00;;;;5064245;28;20235;-74
2022/08/29 06:21:31;;;;;;;2.80;2.50;;;17.20;99.90;18.70;97041.00;;;;5074307;28;20191;-74
2022/08/29 06:24:19;;;;;;;4.90;3.00;;;17.30;99.90;19.00;97041.00;;;;5074617;28;20206;-73
2022/08/29 06:27:08;;;;;;;4.13;2.50;;;17.50;99.90;19.20;97047.00;;;;5074067;28;20196;-74
2022/08/29 06:29:58;;;;;;;6.57;2.10;;;17.60;99.90;19.40;97043.00;;;;5064896;28;20299;-74
2022/08/29 06:32:49;;;;;;;2.33;2.13;;;17.80;99.90;19.60;97046.00;;;;5066130;28;20196;-74
2022/08/29 06:35:38;;;;;;;5.37;3.03;;;18.00;99.90;19.70;97042.00;;;;5065878;28;20224;-74
2022/08/29 06:38:26;;;;;;;4.00;2.37;;;18.10;99.90;19.80;97039.00;;;;5079352;28;20597;-73
2022/08/29 06:41:17;;;;;;;3.27;2.40;;;18.30;99.90;19.80;97042.00;;;;5077553;28;20206;-74
2022/08/29 06:44:07;;;;;;;4.97;2.73;;;18.30;99.90;19.70;97047.00;;;;5067487;28;20223;-75
2022/08/29 06:46:57;;;;;;;4.13;2.77;;;18.40;99.90;19.70;97044.00;;;;5069533;28;20199;-74
2022/08/29 06:49:46;;;;;;;2.73;2.37;;;18.50;99.90;19.90;97043.00;;;;5079518;28;20230;-74
2022/08/29 06:52:35;;;;;;;2.80;2.33;;;18.50;99.90;20.20;97042.00;;;;5065151;28;20195;-75
2022/08/29 06:55:24;;;;;;;3.53;2.07;;;18.70;99.90;20.30;97040.00;;;;5078945;28;20586;-73
2022/08/29 06:58:13;;;;;;;4.20;2.27;;;18.80;99.90;20.40;97050.00;;;;5068857;28;20201;-74
2022/08/29 07:01:07;;;;;;;4.93;2.30;;;18.90;99.90;20.70;97042.00;;;;5075826;28;20225;-74
2022/08/29 07:03:58;;;;;;;2.87;2.00;;;19.10;99.90;21.10;97042.00;;;;5072010;28;20203;-73
2022/08/29 07:06:47;;;;;;;3.10;2.63;;;19.30;99.90;21.20;97054.00;;;;5071737;28;20206;-73
2022/08/29 07:09:36;;;;;;;3.30;2.40;;;19.40;99.90;21.30;97062.00;;;;5066146;28;20240;-73
2022/08/29 07:12:25;;;;;;;4.23;2.20;;;19.60;99.90;21.00;97054.00;;;;5073739;28;20195;-73
2022/08/29 07:15:14;;;;;;;4.07;2.87;;;19.60;99.90;20.60;97053.00;;;;5071882;28;20717;-74
2022/08/29 07:18:03;;;;;;;4.23;2.30;;;19.50;99.90;20.50;97054.00;;;;5070316;28;20196;-74
2022/08/29 07:20:53;;;;;;;3.57;2.60;;;19.40;99.90;20.60;97053.00;;;;5078873;28;20203;-74
2022/08/29 07:23:42;;;;;;;2.30;2.10;;;19.30;99.90;20.80;97046.00;;;;5081024;28;20203;-74
2022/08/29 07:26:35;;;;;;;3.90;2.67;;;19.30;99.90;21.10;97048.00;;;;5070583;28;20203;-74
2022/08/29 07:29:24;;;;;;;3.20;2.43;;;19.40;99.90;21.20;97043.00;;;;5072151;28;20778;-74
2022/08/29 07:32:13;;;;;;;5.33;2.83;;;19.50;99.90;21.40;97051.00;;;;5073916;28;20191;-74
2022/08/29 07:35:02;;;;;;;7.70;2.30;;;19.70;99.90;21.30;97043.00;;;;5067434;28;20223;-74
2022/08/29 07:37:54;;;;;;;4.10;2.33;;;19.80;99.90;21.40;97038.00;;;;5079858;28;20207;-73
2022/08/29 07:40:43;;;;;;;3.60;2.60;;;19.90;99.90;21.70;97036.00;;;;5052956;28;20196;-73
2022/08/29 07:43:33;;;;;;;2.10;1.80;;;20.00;99.90;22.00;97046.00;;;;5068178;28;20200;-74
2022/08/29 07:46:24;;;;;;;5.33;2.67;;;20.20;99.90;22.20;97044.00;;;;5067823;28;20200;-73
2022/08/29 07:49:13;;;;;;;4.43;2.90;;;20.40;99.90;22.60;97052.00;;;;5086494;22;20230;-84
2022/08/29 07:52:02;;;;;;;6.13;2.33;;;20.60;99.90;22.80;97057.00;;;;5090054;28;20226;-85
2022/08/29 07:54:52;;;;;;;2.67;2.20;;;20.80;99.90;23.10;97057.00;;;;5091127;28;20219;-84
2022/08/29 07:57:41;;;;;;;3.23;2.10;;;21.10;99.90;23.60;97062.00;;;;5083569;28;20200;-85
2022/08/29 08:00:30;;;;;;;4.53;2.40;;;21.40;99.90;24.00;97061.00;;;;5086596;28;20188;-85
2022/08/29 08:03:20;;;;;;;4.03;2.27;;;21.60;99.90;24.00;97061.00;;;;5104368;22;20228;-70
2022/08/29 08:06:10;;;;;;;2.80;2.10;;;21.90;99.90;24.50;97066.00;;;;5071476;28;20199;-70
2022/08/29 08:08:59;;;;;;;3.80;1.97;;;22.20;99.90;24.70;97061.00;;;;5071104;28;20604;-70
2022/08/29 08:11:49;;;;;;;1.97;1.80;;;22.40;99.90;24.90;97067.00;;;;5071123;28;20208;-70
2022/08/29 08:14:38;;;;;;;5.53;2.37;;;22.60;99.90;25.20;97066.00;;;;5064232;28;20192;-70
2022/08/29 08:17:27;;;;;;;2.10;1.90;;;22.90;99.90;25.30;97075.00;;;;5071788;28;20195;-70
2022/08/29 08:20:15;;;;;;;1.60;1.50;;;23.10;99.90;25.60;97069.00;;;;5070896;28;20216;-70
2022/08/29 08:23:04;;;;;;;4.13;1.60;;;23.40;99.90;25.80;97075.00;;;;5060424;28;20201;-70
2022/08/29 08:25:56;;;;;;;2.43;1.70;;;23.60;99.90;25.50;97079.00;;;;5052792;28;20201;-70
2022/08/29 08:28:47;;;;;;;5.27;2.10;;;23.70;99.90;25.80;97071.00;;;;5059629;28;20687;-70
2022/08/29 08:31:36;;;;;;;4.80;1.70;;;23.80;99.90;26.00;97073.00;;;;5062190;28;20206;-70
2022/08/29 08:34:28;;;;;;;2.13;1.57;;;24.00;99.90;26.00;97083.00;;;;5043767;28;20194;-70
2022/08/29 08:37:17;;;;;;;1.60;1.50;;;24.10;99.90;25.70;97082.00;;;;5040435;28;20227;-70
2022/08/29 08:40:08;;;;;;;2.10;1.83;;;24.10;99.90;25.70;97086.00;;;;5038847;28;20217;-70
2022/08/29 08:43:00;;;;;;;1.77;1.50;;;24.00;99.90;25.60;97094.00;;;;5060218;28;20944;-69
2022/08/29 08:45:51;;;;;;;2.40;2.00;;;23.90;99.90;25.70;97086.00;;;;5059544;28;20205;-69
2022/08/29 08:48:40;;;;;;;4.30;2.10;;;23.90;99.90;25.80;97085.00;;;;5063720;28;20218;-70
2022/08/29 08:51:34;;;;;;;3.13;2.10;;;24.00;99.90;26.30;97084.00;;;;5065682;28;20205;-70
2022/08/29 08:54:28;;;;;;;2.60;1.60;;;24.10;99.90;26.20;97080.00;;;;5063408;28;20207;-70
2022/08/29 08:57:17;;;;;;;6.43;2.03;;;24.30;99.90;26.60;97078.00;;;;5057258;28;20203;-70
2022/08/29 09:00:09;;;;;;;3.70;1.70;;;24.50;99.90;27.20;97081.00;;;;5054975;28;20248;-70
2022/08/29 09:03:11;;;;;;;1.70;1.60;;;24.70;99.90;27.10;97078.00;;;;5069199;28;20229;-70
2022/08/29 09:06:10;;;;;;;2.63;2.00;;;25.10;99.90;27.30;97076.00;;;;5071470;28;20198;-70
2022/08/29 09:09:09;;;;;;;2.10;1.80;;;25.30;99.90;27.60;97070.00;;;;5069830;28;20614;-70
2022/08/29 09:12:11;;;;;;;2.73;1.60;;;25.40;99.90;27.00;97063.00;;;;5062274;28;20211;-68
2022/08/29 09:15:08;;;;;;;4.17;2.30;;;25.70;99.90;27.10;97065.00;;;;5067253;28;20208;-71
2022/08/29 09:18:03;;;;;;;3.77;3.47;;;25.60;99.90;28.10;97083.00;;;;5070839;28;20594;-70
2022/08/29 09:20:53;;;;;;;3.13;2.93;;;25.80;99.90;27.00;97085.00;;;;5069080;28;20619;-70
2022/08/29 09:23:46;;;;;;;2.33;2.13;;;25.70;99.90;27.20;97090.00;;;;5069049;28;20204;-70
2022/08/29 09:26:35;;;;;;;2.90;1.97;;;25.60;99.90;26.70;97092.00;;;;5068995;28;20298;-70
2022/08/29 09:29:29;;;;;;;2.47;1.70;;;25.40;99.90;26.10;97089.00;;;;5065576;28;20222;-71
2022/08/29 09:32:18;;;;;;;1.93;1.83;;;25.20;99.90;26.10;97094.00;;;;5068162;28;20207;-70
2022/08/29 09:35:23;;;;;;;1.73;1.60;;;24.90;99.90;25.50;97092.00;;;;5070225;28;20220;-68
2022/08/29 09:38:22;;;;;;;2.53;2.30;;;24.60;99.90;25.00;97096.00;;;;5052943;28;20713;-70
2022/08/29 09:41:11;;;;;;;3.80;2.23;;;24.30;99.90;25.10;97093.00;;;;5065108;28;20202;-70
2022/08/29 09:44:00;;;;;;;2.03;1.83;;;24.00;99.90;25.40;97098.00;;;;5054404;28;20208;-70
2022/08/29 09:47:10;;;;;;;2.50;2.10;;;23.90;99.90;25.60;97109.00;;;;5068284;28;20200;-70
2022/08/29 09:50:12;;;;;;;2.30;2.10;;;23.90;99.90;25.70;97109.00;;;;5056115;28;20228;-70
2022/08/29 09:53:04;;;;;;;2.50;2.30;;;23.90;99.90;25.70;97107.00;;;;5060629;28;20200;-70
2022/08/29 09:55:53;;;;;;;2.30;2.10;;;23.90;99.90;25.70;97105.00;;;;5066122;28;20268;-69
2022/08/29 09:58:43;;;;;;;2.40;2.20;;;23.90;99.90;25.80;97109.00;;;;5064771;28;20237;-70
2022/08/29 10:01:32;;;;;;;2.47;2.27;;;23.90;99.90;25.70;97116.00;;;;5070141;28;20204;-70
2022/08/29 10:04:38;;;;;;;1.97;1.87;;;23.90;99.90;25.50;97109.00;;;;5071994;28;20211;-70
2022/08/29 10:07:31;;;;;;;2.53;2.33;;;23.90;99.90;25.60;97114.00;;;;5069903;28;20205;-70
2022/08/29 10:10:25;;;;;;;2.37;2.00;;;23.90;99.90;25.40;97110.00;;;;5077271;28;20219;-70
2022/08/29 10:13:20;;;;;;;3.27;2.37;;;23.80;99.90;24.90;97112.00;;;;5074399;28;20200;-69
2022/08/29 10:16:19;;;;;;;2.40;2.20;;;23.70;99.90;24.80;97117.00;;;;5079819;28;20231;-70
2022/08/29 10:19:14;;;;;;;2.80;2.20;;;23.50;99.90;24.60;97111.00;;;;5056364;28;20223;-70
2022/08/29 10:22:14;;;;;;;3.43;2.30;;;23.40;99.90;24.10;97114.00;;;;5068349;28;20203;-70
2022/08/29 10:25:09;;;;;;;2.87;2.40;;;23.20;99.90;23.60;97111.00;;;;5069571;28;20204;-69
2022/08/29 10:28:06;;;;;;;5.30;2.30;;;23.00;99.90;23.30;97128.00;;;;5069196;28;20192;-70
2022/08/29 10:31:05;;;;;;;2.87;2.30;;;22.60;99.90;22.90;97120.00;;;;5067097;28;20204;-67
2022/08/29 10:34:27;;;;;;;2.53;2.33;;;22.30;99.90;23.00;97126.00;;;;5072563;28;20694;-71
2022/08/29 10:37:22;;;;;;;4.17;2.37;;;22.20;99.90;23.10;97129.00;;;;5065377;28;20228;-71
2022/08/29 10:40:20;;;;;;;3.10;2.70;;;22.10;99.90;23.40;97123.00;;;;5055685;28;20630;-70
2022/08/29 10:43:28;;;;;;;2.90;2.50;;;22.00;99.90;22.80;97128.00;;;;5066997;28;20217;-70
2022/08/29 10:46:45;;;;;;;5.63;2.40;;;22.00;99.90;22.90;97136.00;;;;5076602;28;20581;-70
2022/08/29 10:49:50;;;;;;;2.50;2.30;;;21.90;99.90;23.40;97139.00;;;;5067081;28;20224;-70
2022/08/29 10:52:52;;;;;;;4.67;2.63;;;21.90;99.90;23.80;97139.00;;;;5061436;28;20197;-70
2022/08/29 10:55:53;;;;;;;3.40;2.60;;;22.00;99.90;24.00;97133.00;;;;5061633;28;20675;-71
2022/08/29 10:59:00;;;;;;;2.83;2.53;;;22.10;99.90;24.10;97136.00;;;;5072940;28;20208;-69
2022/08/29 11:01:54;;;;;;;3.27;2.97;;;22.20;99.90;24.20;97140.00;;;;5060905;28;20196;-71
2022/08/29 11:04:49;;;;;;;3.03;2.80;;;22.40;99.90;24.50;97146.00;;;;5069436;28;20211;-70
2022/08/29 11:07:46;;;;;;;3.50;3.00;;;22.50;99.90;24.60;97146.00;;;;5064145;28;20201;-71
2022/08/29 11:10:41;;;;;;;4.00;3.60;;;22.60;99.90;24.70;97138.00;;;;5066617;28;20223;-70
2022/08/29 11:13:35;;;;;;;4.00;3.60;;;22.80;99.90;24.90;97142.00;;;;5056909;28;20196;-71
2022/08/29 11:16:33;;;;;;;3.33;2.90;;;22.90;99.90;25.10;97140.00;;;;5066990;28;20220;-70
2022/08/29 11:19:28;;;;;;;2.77;2.43;;;23.10;99.90;25.20;97144.00;;;;5067774;28;20211;-71
2022/08/29 11:22:22;;;;;;;4.77;2.40;;;23.30;99.90;25.30;97143.00;;;;5053276;28;20200;-69
2022/08/29 11:25:17;;;;;;;3.27;2.50;;;23.40;99.90;25.40;97148.00;;;;5063046;28;20200;-69
2022/08/29 11:28:18;;;;;;;3.57;2.53;;;23.50;99.90;25.20;97139.00;;;;5064257;28;20210;-70
2022/08/29 11:31:15;;;;;;;3.10;2.87;;;23.50;99.90;25.30;97134.00;;;;5062999;28;20200;-70
2022/08/29 11:34:25;;;;;;;2.20;2.00;;;23.60;99.90;25.50;97136.00;;;;5064017;28;20587;-71
2022/08/29 11:37:52;;;;;;;2.80;2.60;;;23.60;99.90;25.50;97130.00;;;;5063599;28;20223;-71
2022/08/29 11:41:15;;;;;;;2.40;2.17;;;23.70;99.90;25.60;97130.00;;;;5064568;28;20195;-71
2022/08/29 11:44:27;;;;;;;3.33;2.27;;;23.80;99.90;25.60;97117.00;;;;5062377;28;20195;-70
2022/08/29 11:47:57;;;;;;;2.93;2.40;;;23.90;99.90;26.00;97118.00;;;;5059833;28;20205;-70
2022/08/29 11:50:48;;;;;;;2.50;1.90;;;24.00;99.90;26.20;97114.00;;;;5062569;28;20212;-70
2022/08/29 11:53:38;;;;;;;2.43;2.20;;;24.10;99.90;27.00;97084.00;;;;5072437;28;20201;-70
2022/08/29 11:56:29;;;;;;;4.63;2.50;;;24.40;99.90;28.00;97111.00;;;;5061874;28;20193;-70
2022/08/29 11:59:57;;;;;;;2.30;1.60;;;25.00;99.90;27.60;97115.00;;;;5060023;28;20219;-70
2022/08/29 12:02:47;;;;;;;3.67;1.80;;;25.30;99.90;27.60;97114.00;;;;5072115;28;20224;-71
2022/08/29 12:06:00;;;;;;;1.87;1.77;;;25.40;99.90;27.70;97125.00;;;;5068674;28;20196;-71
2022/08/29 12:09:01;;;;;;;1.97;1.87;;;25.50;99.90;27.60;97122.00;;;;5065232;28;20225;-71
2022/08/29 12:12:39;;;;;;;2.23;1.97;;;25.60;99.90;27.80;97116.00;;;;5064161;28;20189;-71
2022/08/29 12:15:53;;;;;;;3.40;2.37;;;25.80;99.90;28.00;97117.00;;;;5064583;28;20198;-70
2022/08/29 12:18:49;;;;;;;2.50;2.20;;;26.00;99.90;28.10;97120.00;;;;5064790;28;20241;-71
2022/08/29 12:21:48;;;;;;;2.00;1.77;;;26.10;99.90;28.10;97121.00;;;;5065346;28;20194;-71
2022/08/29 12:24:42;;;;;;;3.67;2.30;;;26.20;99.90;28.00;97121.00;;;;5066259;28;20583;-71
2022/08/29 12:28:01;;;;;;;2.37;1.77;;;26.20;99.90;28.00;97105.00;;;;5056209;28;20199;-69
2022/08/29 12:31:04;;;;;;;2.23;2.03;;;26.20;99.90;28.30;97097.00;;;;5026132;28;20210;-70
2022/08/29 12:34:17;;;;;;;2.13;1.93;;;26.20;99.90;28.50;97103.00;;;;5063224;28;20207;-70
2022/08/29 12:37:34;;;;;;;1.60;1.47;;;26.30;99.90;28.60;97097.00;;;;5058420;28;20230;-71
2022/08/29 12:40:57;;;;;;;2.43;2.23;;;26.50;99.90;28.60;97090.00;;;;5057320;28;20228;-70
2022/08/29 12:43:47;;;;;;;2.00;1.80;;;26.70;99.90;29.10;97081.00;;;;5061940;28;20205;-70
2022/08/29 12:46:41;;;;;;;2.23;1.90;;;26.80;99.90;29.10;97077.00;;;;5079781;28;20208;-69
2022/08/29 12:49:41;;;;;;;2.30;1.70;;;26.90;99.90;28.90;97075.00;;;;5072048;28;20277;-71